Time;durP1;ratioP1;P1;durP2;ratioP2;P2;SDS_P1;SDS_P2;PMS_P1;PMS_P2;Temp;Humidity;BMP_temperature;BMP_pressure;BME280_temperature;BME280_humidity;BME280_pressure;Samples;Min_cycle;Max_cycle;Signal;HPM_P1;HPM_P2
2023/08/05 00:02:39;;;;;;;11.40;5.80;;;;;;;;;;2613132;54;20423;-75
2023/08/05 00:05:05;;;;;;;9.00;6.60;;;;;;;;;;2613980;54;20526;-74
2023/08/05 00:14:13;;;;;;;9.30;6.13;;;;;;;;;;2613785;54;20406;-74
2023/08/05 00:19:43;;;;;;;9.53;6.13;;;;;;;;;;2613663;54;20383;-74
2023/08/05 00:25:13;;;;;;;10.97;7.30;;;;;;;;;;2614336;54;20415;-74
2023/08/05 00:30:43;;;;;;;10.13;7.00;;;;;;;;;;2614042;39;20746;-74
2023/08/05 00:36:12;;;;;;;8.40;6.40;;;;;;;;;;2613721;54;20473;-74
2023/08/05 00:41:42;;;;;;;7.00;5.73;;;;;;;;;;2613458;54;20387;-73
2023/08/05 00:47:12;;;;;;;12.33;7.90;;;;;;;;;;2611939;54;20391;-75
2023/08/05 00:52:43;;;;;;;9.77;6.73;;;;;;;;;;2613057;54;20913;-77
2023/08/05 00:58:13;;;;;;;8.93;7.37;;;;;;;;;;2611706;54;20391;-77
2023/08/05 01:03:43;;;;;;;12.50;6.83;;;;;;;;;;2611312;54;22905;-76
2023/08/05 01:09:13;;;;;;;9.43;7.70;;;;;;;;;;2611375;54;20391;-77
2023/08/05 01:14:42;;;;;;;11.90;6.80;;;;;;;;;;2610995;54;20470;-75
2023/08/05 01:20:14;;;;;;;16.10;7.87;;;;;;;;;;2611254;54;20936;-76
2023/08/05 01:25:45;;;;;;;13.70;8.57;;;;;;;;;;2612288;54;20523;-77
2023/08/05 01:31:15;;;;;;;11.87;8.93;;;;;;;;;;2612196;39;20736;-76
2023/08/05 01:36:45;;;;;;;12.97;8.40;;;;;;;;;;2612560;54;20495;-76
2023/08/05 01:42:15;;;;;;;13.60;9.40;;;;;;;;;;2610996;54;20359;-76
2023/08/05 01:47:44;;;;;;;12.50;9.10;;;;;;;;;;2610442;54;20395;-76
2023/08/05 01:53:14;;;;;;;10.47;7.93;;;;;;;;;;2611418;54;20411;-77
2023/08/05 01:58:44;;;;;;;19.33;8.47;;;;;;;;;;2611247;54;20354;-76
2023/08/05 02:04:14;;;;;;;17.77;10.30;;;;;;;;;;2611758;39;20926;-75
2023/08/05 02:09:44;;;;;;;14.77;8.77;;;;;;;;;;2610790;54;20382;-76
2023/08/05 02:18:52;;;;;;;17.30;10.13;;;;;;;;;;2613590;54;20398;-76
2023/08/05 02:24:21;;;;;;;14.20;7.97;;;;;;;;;;2614426;54;20538;-76
2023/08/05 02:29:50;;;;;;;10.70;8.50;;;;;;;;;;2613374;54;20383;-76
2023/08/05 02:35:20;;;;;;;15.10;8.90;;;;;;;;;;2613245;54;21041;-77
2023/08/05 02:40:50;;;;;;;9.90;8.33;;;;;;;;;;2613373;54;20468;-76
2023/08/05 02:46:19;;;;;;;11.10;8.40;;;;;;;;;;2616170;54;20379;-76
2023/08/05 02:51:49;;;;;;;11.43;8.20;;;;;;;;;;2613603;39;20789;-76
2023/08/05 02:57:19;;;;;;;8.87;7.40;;;;;;;;;;2614462;54;20382;-76
2023/08/05 03:02:48;;;;;;;12.40;8.80;;;;;;;;;;2614891;54;20964;-76
2023/08/05 03:08:18;;;;;;;16.50;8.10;;;;;;;;;;2615040;54;20390;-75
2023/08/05 03:13:48;;;;;;;12.27;7.13;;;;;;;;;;2614676;54;20359;-73
2023/08/05 03:19:17;;;;;;;10.00;8.03;;;;;;;;;;2614027;54;20442;-74
2023/08/05 03:24:47;;;;;;;14.20;8.50;;;;;;;;;;2614163;54;20893;-76
2023/08/05 03:30:17;;;;;;;15.57;9.83;;;;;;;;;;2612724;54;20406;-74
2023/08/05 03:35:47;;;;;;;15.83;8.77;;;;;;;;;;2611502;54;20439;-77
2023/08/05 03:41:17;;;;;;;16.57;9.73;;;;;;;;;;2611700;54;20551;-75
2023/08/05 03:46:46;;;;;;;11.37;8.77;;;;;;;;;;2611689;54;20391;-75
2023/08/05 03:52:16;;;;;;;11.80;9.20;;;;;;;;;;2611411;54;20383;-76
2023/08/05 03:57:47;;;;;;;13.03;8.60;;;;;;;;;;2611729;54;20410;-75
2023/08/05 04:03:16;;;;;;;13.00;10.10;;;;;;;;;;2611188;54;20394;-76
2023/08/05 04:08:46;;;;;;;17.77;10.10;;;;;;;;;;2607545;54;20386;-75
2023/08/05 04:14:18;;;;;;;15.83;9.70;;;;;;;;;;2607986;54;20406;-75
2023/08/05 04:23:28;;;;;;;10.10;8.53;;;;;;;;;;2607769;54;20394;-75
2023/08/05 04:28:58;;;;;;;10.63;9.17;;;;;;;;;;2608495;54;20398;-74
2023/08/05 04:34:33;;;;;;;27.93;9.73;;;;;;;;;;2610157;39;20754;-75
2023/08/05 04:40:03;;;;;;;10.13;9.13;;;;;;;;;;2609862;54;20382;-75
2023/08/05 04:45:33;;;;;;;11.90;9.20;;;;;;;;;;2612411;54;20382;-75
2023/08/05 04:51:02;;;;;;;14.40;9.47;;;;;;;;;;2609738;54;20383;-75
2023/08/05 04:56:33;;;;;;;13.30;9.37;;;;;;;;;;2609956;54;20499;-75
2023/08/05 05:02:04;;;;;;;15.10;11.07;;;;;;;;;;2609885;54;20487;-75
2023/08/05 05:07:33;;;;;;;14.90;10.70;;;;;;;;;;2612388;54;20351;-75
2023/08/05 05:13:03;;;;;;;11.37;9.53;;;;;;;;;;2609272;54;20391;-75
2023/08/05 05:18:32;;;;;;;17.70;11.87;;;;;;;;;;2609670;54;20375;-75
2023/08/05 05:24:02;;;;;;;18.43;11.10;;;;;;;;;;2609016;54;20466;-75
2023/08/05 05:29:31;;;;;;;19.80;10.33;;;;;;;;;;2610331;54;20423;-80
2023/08/05 05:35:02;;;;;;;15.60;10.83;;;;;;;;;;2609595;54;20402;-75
2023/08/05 05:40:32;;;;;;;14.20;10.87;;;;;;;;;;2610351;39;20887;-76
2023/08/05 05:46:02;;;;;;;18.13;11.70;;;;;;;;;;2610627;54;21130;-73
2023/08/05 05:51:32;;;;;;;16.33;10.50;;;;;;;;;;2608161;54;20375;-74
2023/08/05 05:57:02;;;;;;;11.80;9.10;;;;;;;;;;2611557;54;20406;-75
2023/08/05 06:02:32;;;;;;;13.93;8.93;;;;;;;;;;2609177;54;20375;-74
2023/08/05 06:08:02;;;;;;;12.07;9.40;;;;;;;;;;2611034;54;20378;-75
2023/08/05 06:13:32;;;;;;;15.33;10.90;;;;;;;;;;2610722;39;20701;-74
2023/08/05 06:19:01;;;;;;;8.73;7.93;;;;;;;;;;2611130;39;20738;-75
2023/08/05 06:28:12;;;;;;;13.37;10.63;;;;;;;;;;2611098;39;20801;-74
2023/08/05 06:33:41;;;;;;;9.33;8.40;;;;;;;;;;2610663;54;20367;-75
2023/08/05 06:39:11;;;;;;;11.03;9.57;;;;;;;;;;2610778;54;20367;-74
2023/08/05 06:44:43;;;;;;;13.00;8.40;;;;;;;;;;2613249;54;20411;-76
2023/08/05 06:50:12;;;;;;;14.23;9.00;;;;;;;;;;2610929;54;20407;-77
2023/08/05 06:55:42;;;;;;;11.00;9.90;;;;;;;;;;2611227;54;20383;-76
2023/08/05 07:01:12;;;;;;;16.60;12.87;;;;;;;;;;2614080;54;20909;-76
2023/08/05 07:06:44;;;;;;;16.20;12.60;;;;;;;;;;2614688;54;21577;-75
2023/08/05 07:12:13;;;;;;;16.07;12.87;;;;;;;;;;2615227;54;20950;-77
2023/08/05 07:17:43;;;;;;;17.87;12.87;;;;;;;;;;2616058;54;20938;-76
2023/08/05 07:23:13;;;;;;;17.63;12.17;;;;;;;;;;2614214;54;20387;-75
2023/08/05 07:28:43;;;;;;;14.60;11.80;;;;;;;;;;2614239;54;20467;-75
2023/08/05 07:34:15;;;;;;;20.77;11.60;;;;;;;;;;2613014;39;20557;-75
2023/08/05 07:39:48;;;;;;;13.53;12.13;;;;;;;;;;2614441;54;20499;-77
2023/08/05 07:45:18;;;;;;;19.07;14.80;;;;;;;;;;2615755;39;20833;-75
2023/08/05 07:50:48;;;;;;;22.90;17.20;;;;;;;;;;2614739;54;20952;-75
2023/08/05 07:56:19;;;;;;;23.33;16.57;;;;;;;;;;2617104;54;20418;-77
2023/08/05 08:01:49;;;;;;;20.53;16.30;;;;;;;;;;2617171;54;20391;-78
2023/08/05 08:07:18;;;;;;;19.70;16.20;;;;;;;;;;2617273;54;20874;-77
2023/08/05 08:12:48;;;;;;;21.90;19.27;;;;;;;;;;2617360;54;20395;-76
2023/08/05 08:18:18;;;;;;;20.53;17.60;;;;;;;;;;2617311;54;20371;-77
2023/08/05 08:23:48;;;;;;;22.77;20.40;;;;;;;;;;2617123;54;20399;-77
2023/08/05 08:35:25;;;;;;;19.53;17.47;;;;;;;;;;2614420;54;20912;-77
2023/08/05 08:41:03;;;;;;;19.10;17.10;;;;;;;;;;2614057;54;20371;-75
2023/08/05 08:46:32;;;;;;;18.40;15.13;;;;;;;;;;2611462;54;20398;-76
2023/08/05 08:52:02;;;;;;;17.70;15.60;;;;;;;;;;2612550;54;20371;-74
2023/08/05 08:57:32;;;;;;;15.33;13.73;;;;;;;;;;2613576;54;20391;-74
2023/08/05 09:03:01;;;;;;;15.10;13.43;;;;;;;;;;2612518;54;20351;-74
2023/08/05 09:08:31;;;;;;;15.07;13.60;;;;;;;;;;2611431;46;20406;-74
2023/08/05 09:14:00;;;;;;;14.97;13.50;;;;;;;;;;2613853;54;20525;-76
2023/08/05 09:19:30;;;;;;;17.33;15.63;;;;;;;;;;2613625;54;20382;-73
2023/08/05 09:25:02;;;;;;;14.70;13.30;;;;;;;;;;2612406;54;20410;-71
2023/08/05 09:34:01;;;;;;;15.87;14.47;;;;;;;;;;2614884;54;20415;-72
2023/08/05 09:39:51;;;;;;;12.80;11.80;;;;;;;;;;2614421;54;20355;-72
2023/08/05 09:45:22;;;;;;;15.13;13.67;;;;;;;;;;2614501;54;20422;-72
2023/08/05 09:50:52;;;;;;;15.23;13.90;;;;;;;;;;2613243;54;20375;-74
2023/08/05 09:56:22;;;;;;;14.90;13.70;;;;;;;;;;2614896;54;20391;-71
2023/08/05 10:01:52;;;;;;;16.03;14.47;;;;;;;;;;2614762;54;21287;-73
2023/08/05 10:07:23;;;;;;;16.53;15.03;;;;;;;;;;2614882;54;20414;-73
2023/08/05 10:12:58;;;;;;;17.97;16.17;;;;;;;;;;2614590;54;20362;-72
2023/08/05 10:18:28;;;;;;;18.03;16.37;;;;;;;;;;2614770;54;20371;-72
2023/08/05 10:24:01;;;;;;;19.60;17.73;;;;;;;;;;2615106;54;20471;-75
2023/08/05 10:29:31;;;;;;;16.53;15.23;;;;;;;;;;2614743;54;20440;-74
2023/08/05 10:35:20;;;;;;;13.93;12.83;;;;;;;;;;2615489;39;20776;-76
2023/08/05 10:41:02;;;;;;;14.17;12.90;;;;;;;;;;2616456;31;20856;-76
2023/08/05 10:46:31;;;;;;;12.70;11.90;;;;;;;;;;2614239;54;20367;-74
2023/08/05 10:52:00;;;;;;;11.43;10.50;;;;;;;;;;2614404;54;20367;-75
2023/08/05 10:57:30;;;;;;;13.67;12.67;;;;;;;;;;2614648;54;20439;-75
2023/08/05 11:12:29;;;;;;;11.53;10.63;;;;;;;;;;2614101;54;21030;-75
2023/08/05 11:17:58;;;;;;;10.77;10.00;;;;;;;;;;2613872;54;20351;-75
2023/08/05 11:23:28;;;;;;;11.40;10.60;;;;;;;;;;2614327;54;20491;-74
2023/08/05 11:29:03;;;;;;;11.10;10.40;;;;;;;;;;2614318;54;20404;-75
2023/08/05 11:34:32;;;;;;;11.60;10.80;;;;;;;;;;2614318;54;20990;-76
2023/08/05 11:40:01;;;;;;;10.97;10.20;;;;;;;;;;2614004;54;21005;-74
2023/08/05 11:45:31;;;;;;;11.37;10.60;;;;;;;;;;2615849;54;20462;-76
2023/08/05 11:51:02;;;;;;;10.57;9.87;;;;;;;;;;2615660;54;20407;-74
2023/08/05 11:56:31;;;;;;;11.00;10.17;;;;;;;;;;2615687;54;20382;-75
2023/08/05 12:02:02;;;;;;;10.60;9.80;;;;;;;;;;2615698;54;20391;-75
2023/08/05 12:07:32;;;;;;;10.40;9.73;;;;;;;;;;2615983;54;20418;-75
2023/08/05 12:13:06;;;;;;;10.03;9.53;;;;;;;;;;2616143;54;20495;-75
2023/08/05 12:18:42;;;;;;;10.20;9.60;;;;;;;;;;2616047;54;20423;-75
2023/08/05 12:24:12;;;;;;;9.77;9.27;;;;;;;;;;2615549;54;20419;-75
2023/08/05 12:29:41;;;;;;;11.93;10.90;;;;;;;;;;2615535;54;20391;-76
2023/08/05 12:38:53;;;;;;;9.60;9.07;;;;;;;;;;2614254;54;20968;-74
2023/08/05 12:44:22;;;;;;;10.80;10.10;;;;;;;;;;2610975;54;20382;-74
2023/08/05 12:49:51;;;;;;;10.67;9.90;;;;;;;;;;2610765;54;20381;-74
2023/08/05 12:55:21;;;;;;;10.93;10.10;;;;;;;;;;2614464;54;20472;-74
2023/08/05 13:00:51;;;;;;;10.70;9.80;;;;;;;;;;2611308;54;20379;-73
2023/08/05 13:06:21;;;;;;;11.47;10.47;;;;;;;;;;2613670;39;20798;-72
2023/08/05 13:11:51;;;;;;;12.23;11.33;;;;;;;;;;2610840;54;20378;-73
2023/08/05 13:17:21;;;;;;;11.40;10.60;;;;;;;;;;2611111;54;20355;-72
2023/08/05 13:22:50;;;;;;;11.50;10.70;;;;;;;;;;2610661;54;20371;-73
2023/08/05 13:28:20;;;;;;;11.47;10.57;;;;;;;;;;2611839;54;20422;-72
2023/08/05 13:33:49;;;;;;;11.17;10.03;;;;;;;;;;2611136;54;20392;-74
2023/08/05 13:39:19;;;;;;;11.57;10.57;;;;;;;;;;2610667;54;20506;-74
2023/08/05 13:44:48;;;;;;;10.87;10.17;;;;;;;;;;2610660;54;20379;-74
2023/08/05 13:50:19;;;;;;;8.87;8.00;;;;;;;;;;2611303;54;20451;-74
2023/08/05 13:55:53;;;;;;;6.73;4.20;;;;;;;;;;2611293;54;20379;-76
2023/08/05 14:01:23;;;;;;;5.33;4.57;;;;;;;;;;2611064;54;20379;-74
2023/08/05 14:06:53;;;;;;;5.23;3.80;;;;;;;;;;2611067;54;20343;-74
2023/08/05 14:12:22;;;;;;;7.37;5.17;;;;;;;;;;2610788;54;20519;-74
2023/08/05 14:17:52;;;;;;;6.70;5.30;;;;;;;;;;2611355;54;20355;-74
2023/08/05 14:23:22;;;;;;;7.70;5.53;;;;;;;;;;2611588;54;20455;-75
2023/08/05 14:28:52;;;;;;;7.10;6.00;;;;;;;;;;2612387;54;20383;-76
2023/08/05 14:34:21;;;;;;;8.73;6.87;;;;;;;;;;2612496;54;20435;-76
2023/08/05 14:43:23;;;;;;;11.93;7.83;;;;;;;;;;2611749;54;20488;-76
2023/08/05 14:48:52;;;;;;;8.17;6.60;;;;;;;;;;2611218;54;20439;-75
2023/08/05 14:54:23;;;;;;;7.20;5.73;;;;;;;;;;2614620;54;20407;-76
2023/08/05 14:59:53;;;;;;;7.47;6.60;;;;;;;;;;2611301;54;20374;-76
2023/08/05 15:05:25;;;;;;;7.33;6.17;;;;;;;;;;2611788;39;20947;-75
2023/08/05 15:10:58;;;;;;;8.47;6.37;;;;;;;;;;2611338;54;20484;-75
2023/08/05 15:16:28;;;;;;;9.17;6.07;;;;;;;;;;2611604;54;20382;-76
2023/08/05 15:21:57;;;;;;;7.87;5.90;;;;;;;;;;2611205;54;20471;-75
2023/08/05 15:27:27;;;;;;;12.33;7.00;;;;;;;;;;2611144;54;21079;-76
2023/08/05 15:32:57;;;;;;;7.60;6.60;;;;;;;;;;2611274;54;20379;-76
2023/08/05 15:38:26;;;;;;;8.07;6.17;;;;;;;;;;2610769;54;20367;-76
2023/08/05 15:50:04;;;;;;;7.13;6.43;;;;;;;;;;2611078;54;20379;-75
2023/08/05 15:55:33;;;;;;;7.50;6.80;;;;;;;;;;2612321;54;20426;-74
2023/08/05 16:01:03;;;;;;;7.70;6.90;;;;;;;;;;2611166;39;21475;-72
2023/08/05 16:06:33;;;;;;;8.60;7.70;;;;;;;;;;2610859;54;20447;-73
2023/08/05 16:12:02;;;;;;;8.10;7.30;;;;;;;;;;2610580;54;20386;-73
2023/08/05 16:17:33;;;;;;;7.83;7.07;;;;;;;;;;2610862;54;20390;-70
2023/08/05 16:23:03;;;;;;;9.80;6.83;;;;;;;;;;2610669;54;20390;-71
2023/08/05 16:28:33;;;;;;;9.53;8.60;;;;;;;;;;2613827;54;21374;-70
2023/08/05 16:34:02;;;;;;;11.93;7.47;;;;;;;;;;2612262;54;20455;-71
2023/08/05 16:39:32;;;;;;;7.80;7.10;;;;;;;;;;2611119;54;20410;-71
2023/08/05 16:54:12;;;;;;;8.27;7.47;;;;;;;;;;2610482;54;20937;-72
2023/08/05 16:59:42;;;;;;;8.33;6.50;;;;;;;;;;2610357;54;20951;-70
2023/08/05 17:05:11;;;;;;;7.23;6.30;;;;;;;;;;2610504;54;20430;-74
2023/08/05 17:10:41;;;;;;;6.93;6.23;;;;;;;;;;2610700;54;20410;-74
2023/08/05 17:16:10;;;;;;;9.00;7.60;;;;;;;;;;2610554;54;20977;-75
2023/08/05 17:21:40;;;;;;;8.30;7.03;;;;;;;;;;2610275;54;20359;-74
2023/08/05 17:27:10;;;;;;;7.77;6.97;;;;;;;;;;2612316;54;20355;-71
2023/08/05 17:32:39;;;;;;;9.87;7.07;;;;;;;;;;2610605;54;20415;-70
2023/08/05 17:38:09;;;;;;;7.90;6.83;;;;;;;;;;2610015;54;20410;-71
2023/08/05 17:43:38;;;;;;;8.47;6.40;;;;;;;;;;2613636;54;20362;-73
2023/08/05 17:49:08;;;;;;;10.17;7.20;;;;;;;;;;2611154;54;21077;-71
2023/08/05 17:54:38;;;;;;;9.87;6.90;;;;;;;;;;2611818;54;20905;-72
2023/08/05 18:00:08;;;;;;;9.03;5.97;;;;;;;;;;2611431;54;20546;-74
2023/08/05 18:02:53;;;;;;;7.33;6.60;;;;;;;;;;2611244;54;20423;-71
2023/08/05 18:05:19;;;;;;;6.60;6.00;;;;;;;;;;2611345;54;20510;-72
2023/08/05 18:10:49;;;;;;;11.67;5.80;;;;;;;;;;2611257;54;20423;-71
2023/08/05 18:16:19;;;;;;;9.03;6.20;;;;;;;;;;2611241;54;20483;-73
2023/08/05 18:21:49;;;;;;;9.80;6.20;;;;;;;;;;2611114;54;20406;-71
2023/08/05 18:27:19;;;;;;;12.67;11.47;;;;;;;;;;2611634;54;20351;-73
2023/08/05 18:32:48;;;;;;;10.03;9.03;;;;;;;;;;2611586;54;20379;-72
2023/08/05 18:38:18;;;;;;;9.17;8.23;;;;;;;;;;2615204;54;20394;-75
2023/08/05 18:43:47;;;;;;;8.07;6.07;;;;;;;;;;2614718;54;20552;-77
2023/08/05 18:49:36;;;;;;;11.47;6.50;;;;;;;;;;2614726;54;20434;-75
2023/08/05 18:55:06;;;;;;;8.20;5.50;;;;;;;;;;2615162;54;20386;-75
2023/08/05 19:00:39;;;;;;;8.60;6.60;;;;;;;;;;2615058;54;20426;-76
2023/08/05 19:06:08;;;;;;;8.30;5.80;;;;;;;;;;2614783;54;20355;-76
2023/08/05 19:11:38;;;;;;;6.27;5.67;;;;;;;;;;2613206;54;20354;-77
2023/08/05 19:17:07;;;;;;;10.57;6.03;;;;;;;;;;2612833;54;20337;-77
2023/08/05 19:22:37;;;;;;;7.07;6.40;;;;;;;;;;2614167;54;20379;-78
2023/08/05 19:28:07;;;;;;;8.20;5.97;;;;;;;;;;2614752;54;20378;-77
2023/08/05 19:33:37;;;;;;;7.57;6.50;;;;;;;;;;2615489;54;20379;-78
2023/08/05 19:39:07;;;;;;;8.63;7.67;;;;;;;;;;2613242;54;20399;-78
2023/08/05 19:44:36;;;;;;;8.23;7.27;;;;;;;;;;2611863;54;20420;-72
2023/08/05 19:53:46;;;;;;;10.33;9.27;;;;;;;;;;2611360;46;20395;-72
2023/08/05 19:59:15;;;;;;;10.73;8.43;;;;;;;;;;2614607;54;21015;-73
2023/08/05 20:04:45;;;;;;;10.60;9.50;;;;;;;;;;2614740;54;20386;-73
2023/08/05 20:10:14;;;;;;;8.90;8.10;;;;;;;;;;2613677;54;20415;-71
2023/08/05 20:15:44;;;;;;;8.97;7.73;;;;;;;;;;2614514;54;20367;-73
2023/08/05 20:21:14;;;;;;;11.10;7.47;;;;;;;;;;2613253;54;20379;-71
2023/08/05 20:26:44;;;;;;;13.30;9.13;;;;;;;;;;2614474;46;20380;-71
2023/08/05 20:32:13;;;;;;;10.83;8.90;;;;;;;;;;2614472;54;20367;-71
2023/08/05 20:37:43;;;;;;;8.57;7.67;;;;;;;;;;2612877;54;20366;-74
2023/08/05 20:43:12;;;;;;;9.13;7.47;;;;;;;;;;2613479;54;20343;-76
2023/08/05 20:48:49;;;;;;;8.33;7.53;;;;;;;;;;2611747;54;21052;-84
2023/08/05 20:54:18;;;;;;;11.40;10.20;;;;;;;;;;2611677;54;20404;-73
2023/08/05 20:59:48;;;;;;;10.73;8.30;;;;;;;;;;2609009;54;20414;-75
2023/08/05 21:05:18;;;;;;;8.73;7.93;;;;;;;;;;2610246;54;20383;-74
2023/08/05 21:10:47;;;;;;;10.77;9.60;;;;;;;;;;2613593;54;20379;-76
2023/08/05 21:16:18;;;;;;;19.50;16.53;;;;;;;;;;2612405;54;20519;-75
2023/08/05 21:21:49;;;;;;;9.43;8.20;;;;;;;;;;2614082;46;20367;-76
2023/08/05 21:27:19;;;;;;;9.07;7.70;;;;;;;;;;2609409;54;20374;-75
2023/08/05 21:32:48;;;;;;;9.63;8.73;;;;;;;;;;2611525;54;20370;-74
2023/08/05 21:38:18;;;;;;;15.30;5.90;;;;;;;;;;2611491;54;20431;-74
2023/08/05 21:43:48;;;;;;;6.77;5.90;;;;;;;;;;2610122;54;20434;-74
2023/08/05 21:49:17;;;;;;;7.27;6.17;;;;;;;;;;2614416;54;20378;-77
2023/08/05 21:54:47;;;;;;;7.30;5.70;;;;;;;;;;2610514;54;20386;-76
2023/08/05 22:00:17;;;;;;;5.60;5.10;;;;;;;;;;2610698;54;20418;-76
2023/08/05 22:05:47;;;;;;;5.77;4.90;;;;;;;;;;2611283;46;20401;-74
2023/08/05 22:11:17;;;;;;;5.80;4.87;;;;;;;;;;2610857;54;20431;-76
2023/08/05 22:16:46;;;;;;;6.87;6.10;;;;;;;;;;2610998;54;20928;-75
2023/08/05 22:22:16;;;;;;;5.90;5.30;;;;;;;;;;2611119;54;20925;-76
2023/08/05 22:27:45;;;;;;;6.90;6.30;;;;;;;;;;2610798;54;20487;-76
2023/08/05 22:33:15;;;;;;;11.97;6.90;;;;;;;;;;2610608;54;20531;-77
2023/08/05 22:38:46;;;;;;;8.70;5.60;;;;;;;;;;2612132;54;20522;-76
2023/08/05 22:44:16;;;;;;;5.80;4.70;;;;;;;;;;2610890;54;20500;-76
2023/08/05 22:55:54;;;;;;;6.47;5.57;;;;;;;;;;2611309;54;20407;-77
2023/08/05 23:01:24;;;;;;;5.83;5.33;;;;;;;;;;2611710;54;20383;-77
2023/08/05 23:06:53;;;;;;;6.00;5.40;;;;;;;;;;2610918;54;21031;-76
2023/08/05 23:12:23;;;;;;;7.33;5.07;;;;;;;;;;2607101;54;20367;-75
2023/08/05 23:17:53;;;;;;;6.53;5.70;;;;;;;;;;2607729;54;20375;-76
2023/08/05 23:23:22;;;;;;;8.50;4.67;;;;;;;;;;2607361;54;20928;-75
2023/08/05 23:28:52;;;;;;;5.80;5.00;;;;;;;;;;2607976;54;20492;-75
2023/08/05 23:34:22;;;;;;;6.30;5.73;;;;;;;;;;2607509;54;20414;-76
2023/08/05 23:39:51;;;;;;;7.87;4.63;;;;;;;;;;2607609;54;20378;-76
2023/08/05 23:45:21;;;;;;;7.40;4.20;;;;;;;;;;2606554;54;20504;-75
2023/08/05 23:54:35;;;;;;;4.33;3.67;;;;;;;;;;2609945;54;20382;-76
